Time;durP1;ratioP1;P1;durP2;ratioP2;P2;SDS_P1;SDS_P2;PMS_P1;PMS_P2;Temp;Humidity;BMP_temperature;BMP_pressure;BME280_temperature;BME280_humidity;BME280_pressure;Samples;Min_cycle;Max_cycle;Signal;HPM_P1;HPM_P2
2021/08/28 00:00:29;;;;;;;18.30;13.90;;;;;;;12.30;88.95;97322.29;116267;1184;70335;-73
2021/08/28 00:03:02;;;;;;;21.00;13.70;;;;;;;12.30;88.70;97329.94;116305;1183;68439;-76
2021/08/28 00:05:32;;;;;;;19.70;14.10;;;;;;;12.30;88.72;97338.02;116265;1183;68276;-73
2021/08/28 00:08:01;;;;;;;21.20;13.90;;;;;;;12.29;89.02;97343.91;116263;1183;59460;-71
2021/08/28 00:10:30;;;;;;;21.80;15.00;;;;;;;12.30;89.11;97346.60;116254;1184;59910;-71
2021/08/28 00:12:59;;;;;;;18.90;14.20;;;;;;;12.29;88.55;97350.42;116257;1179;71385;-72
2021/08/28 00:15:29;;;;;;;22.90;16.30;;;;;;;12.29;88.22;97349.77;116326;1183;69162;-71
2021/08/28 00:17:59;;;;;;;19.00;15.50;;;;;;;12.29;88.36;97349.63;116270;1183;69004;-74
2021/08/28 00:20:29;;;;;;;23.80;14.40;;;;;;;12.28;88.64;97353.25;116262;1183;59516;-74
2021/08/28 00:23:02;;;;;;;21.60;14.60;;;;;;;12.29;88.50;97356.86;116311;1183;59533;-71
2021/08/28 00:25:32;;;;;;;22.40;14.00;;;;;;;12.30;88.66;97360.23;116312;1183;70323;-72
2021/08/28 00:28:03;;;;;;;19.20;14.40;;;;;;;12.30;88.84;97362.45;116239;1183;69104;-72
2021/08/28 00:30:32;;;;;;;18.10;14.70;;;;;;;12.30;88.75;97363.79;116326;1183;69440;-73
2021/08/28 00:33:13;;;;;;;17.10;14.20;;;;;;;12.32;88.47;97357.38;116253;1179;59626;-72
2021/08/28 00:35:43;;;;;;;18.70;13.90;;;;;;;12.33;89.17;97349.39;116268;1183;59567;-72
2021/08/28 00:38:13;;;;;;;16.30;13.70;;;;;;;12.33;89.38;97348.52;116325;1183;69557;-71
2021/08/28 00:40:42;;;;;;;20.40;14.20;;;;;;;12.34;88.99;97346.89;116266;1181;69477;-75
2021/08/28 00:43:11;;;;;;;21.90;15.20;;;;;;;12.36;88.60;97349.83;116236;1183;69278;-72
2021/08/28 00:45:41;;;;;;;18.50;14.30;;;;;;;12.38;88.31;97357.45;116298;1182;59518;-74
2021/08/28 00:48:12;;;;;;;16.10;12.60;;;;;;;12.39;89.13;97356.50;116100;1182;59554;-71
2021/08/28 00:50:44;;;;;;;17.60;13.30;;;;;;;12.37;89.12;97363.28;116069;1184;71434;-73
2021/08/28 00:53:16;;;;;;;15.60;12.70;;;;;;;12.37;88.81;97366.77;116147;1179;69063;-72
2021/08/28 00:55:49;;;;;;;22.10;14.00;;;;;;;12.38;89.22;97362.61;116289;1182;69220;-75
2021/08/28 00:58:22;;;;;;;22.90;14.80;;;;;;;12.38;89.49;97360.78;116124;1184;59572;-73
2021/08/28 01:01:11;;;;;;;25.00;14.20;;;;;;;12.39;89.44;97365.86;116322;1183;59530;-70
2021/08/28 01:03:44;;;;;;;22.60;14.80;;;;;;;12.38;89.72;97363.95;116231;1180;71307;-72
2021/08/28 01:06:23;;;;;;;21.30;16.70;;;;;;;12.38;89.75;97368.17;116033;1184;69133;-73
2021/08/28 01:09:21;;;;;;;22.60;16.40;;;;;;;12.39;89.36;97359.80;116237;1183;68569;-74
2021/08/28 01:12:08;;;;;;;22.70;15.60;;;;;;;12.42;89.11;97353.36;116288;1181;59598;-74
2021/08/28 01:14:50;;;;;;;21.90;14.10;;;;;;;12.41;89.43;97343.89;116087;1184;59550;-72
2021/08/28 01:17:23;;;;;;;19.10;13.30;;;;;;;12.38;89.26;97346.20;116353;1184;70398;-75
2021/08/28 01:20:04;;;;;;;17.60;13.90;;;;;;;12.36;89.21;97350.48;116296;1179;69211;-72
2021/08/28 01:23:11;;;;;;;23.00;14.10;;;;;;;12.33;89.36;97350.75;115891;1187;68098;-72
2021/08/28 01:26:00;;;;;;;18.80;14.30;;;;;;;12.31;89.38;97354.16;116088;1182;59528;-75
2021/08/28 01:28:47;;;;;;;18.00;13.90;;;;;;;12.31;88.91;97353.14;116288;1183;59507;-74
2021/08/28 01:31:19;;;;;;;17.50;13.20;;;;;;;12.30;89.18;97346.27;116232;1182;69750;-72
2021/08/28 01:33:52;;;;;;;21.10;14.40;;;;;;;12.29;88.96;97349.46;116033;1183;68538;-75
2021/08/28 01:36:22;;;;;;;17.40;13.30;;;;;;;12.30;89.03;97348.48;116070;1180;69108;-75
2021/08/28 01:39:00;;;;;;;21.40;13.90;;;;;;;12.29;89.39;97347.80;116115;1182;59543;-74
2021/08/28 01:41:31;;;;;;;16.60;13.80;;;;;;;12.28;89.55;97350.54;116314;1183;59575;-72
2021/08/28 01:44:03;;;;;;;17.20;14.00;;;;;;;12.28;89.42;97349.27;116113;1181;70540;-71
2021/08/28 01:46:39;;;;;;;21.30;14.90;;;;;;;12.29;89.04;97346.96;116319;1183;68391;-75
2021/08/28 01:49:12;;;;;;;20.80;15.20;;;;;;;12.28;89.62;97343.42;116197;1184;69181;-74
2021/08/28 01:51:44;;;;;;;21.50;15.40;;;;;;;12.27;89.53;97344.86;116160;1179;59576;-75
2021/08/28 01:54:27;;;;;;;23.80;15.80;;;;;;;12.27;89.11;97344.43;116152;1180;59585;-75
2021/08/28 01:56:57;;;;;;;17.80;14.50;;;;;;;12.26;88.85;97348.96;116210;1179;70526;-73
2021/08/28 01:59:30;;;;;;;21.40;14.80;;;;;;;12.24;89.01;97348.02;116202;1181;69278;-71
2021/08/28 02:01:59;;;;;;;18.80;13.90;;;;;;;12.21;89.12;97348.12;116099;1184;70143;-73
2021/08/28 02:04:38;;;;;;;19.30;14.90;;;;;;;12.18;89.24;97346.79;116201;1184;59557;-72
2021/08/28 02:07:34;;;;;;;20.10;14.90;;;;;;;12.15;89.24;97347.21;116111;1182;59506;-71
2021/08/28 02:10:12;;;;;;;25.80;17.60;;;;;;;12.13;88.90;97345.94;116166;1184;71389;-75
2021/08/28 02:12:45;;;;;;;21.50;16.50;;;;;;;12.13;88.92;97342.14;116325;1183;69029;-75
2021/08/28 02:15:32;;;;;;;19.50;15.20;;;;;;;12.13;89.39;97346.36;116333;1181;69163;-73
2021/08/28 02:18:17;;;;;;;21.60;15.10;;;;;;;12.11;89.30;97350.77;116123;1183;59546;-73
2021/08/28 02:21:06;;;;;;;23.70;14.60;;;;;;;12.05;89.38;97348.61;116006;1185;59523;-75
2021/08/28 02:23:49;;;;;;;22.90;16.30;;;;;;;12.00;89.14;97341.91;116264;1182;71132;-71
2021/08/28 02:26:36;;;;;;;18.40;14.80;;;;;;;11.94;88.75;97342.90;116285;1183;68405;-71
2021/08/28 02:29:13;;;;;;;19.60;14.80;;;;;;;11.91;88.84;97341.62;116300;1179;69242;-73
2021/08/28 02:31:47;;;;;;;21.90;14.90;;;;;;;11.87;89.55;97342.40;116140;1182;60138;-72
2021/08/28 02:34:19;;;;;;;18.60;15.70;;;;;;;11.83;89.49;97344.11;116206;1180;59500;-70
2021/08/28 02:36:53;;;;;;;20.50;15.70;;;;;;;11.79;89.41;97343.73;116330;1183;71180;-73
2021/08/28 02:39:24;;;;;;;19.50;16.00;;;;;;;11.76;89.00;97343.52;116175;1181;68987;-76
2021/08/28 02:41:56;;;;;;;23.70;16.90;;;;;;;11.75;89.38;97346.80;116142;1184;68410;-72
2021/08/28 02:44:27;;;;;;;23.80;17.60;;;;;;;11.76;89.32;97348.75;116226;1182;59613;-72
2021/08/28 02:46:59;;;;;;;24.60;19.30;;;;;;;11.77;88.94;97348.17;116125;1184;59539;-72
2021/08/28 02:49:31;;;;;;;27.30;19.80;;;;;;;11.79;88.72;97346.21;116167;1182;70762;-75
2021/08/28 02:52:03;;;;;;;22.30;17.00;;;;;;;11.81;88.80;97343.30;116258;1184;69197;-75
2021/08/28 02:54:37;;;;;;;22.50;17.40;;;;;;;11.85;89.43;97341.98;116112;1184;69138;-72
2021/08/28 02:57:08;;;;;;;26.60;18.60;;;;;;;11.88;90.39;97340.23;116129;1182;59549;-74
2021/08/28 02:59:41;;;;;;;30.50;21.60;;;;;;;11.91;90.56;97340.36;116179;1184;59590;-71
2021/08/28 03:02:11;;;;;;;39.70;23.90;;;;;;;11.93;90.66;97340.84;116132;1181;71266;-71
2021/08/28 03:04:44;;;;;;;40.70;21.90;;;;;;;11.95;90.14;97340.04;116161;1184;69162;-73
2021/08/28 03:07:17;;;;;;;40.50;22.20;;;;;;;11.97;90.13;97343.91;116036;1184;68670;-73
2021/08/28 03:09:47;;;;;;;97.90;21.50;;;;;;;11.98;90.30;97339.91;116264;1183;59550;-72
2021/08/28 03:12:17;;;;;;;60.60;22.10;;;;;;;11.98;90.66;97336.05;116157;1184;59569;-71
2021/08/28 03:14:47;;;;;;;53.40;20.30;;;;;;;11.95;90.79;97337.98;116172;1184;71483;-71
2021/08/28 03:17:17;;;;;;;92.20;21.40;;;;;;;11.88;90.78;97336.40;116179;1180;69652;-72
2021/08/28 03:19:49;;;;;;;62.80;21.40;;;;;;;11.82;90.50;97339.70;116129;1182;68240;-73
2021/08/28 03:22:21;;;;;;;25.90;19.20;;;;;;;11.74;90.19;97335.42;116241;1179;59541;-71
2021/08/28 03:24:53;;;;;;;30.40;18.90;;;;;;;11.68;90.12;97338.83;116133;1184;59564;-72
2021/08/28 03:27:32;;;;;;;27.50;19.10;;;;;;;11.62;90.24;97337.84;116291;1184;71165;-70
2021/08/28 03:30:04;;;;;;;137.10;25.50;;;;;;;11.59;90.37;97340.22;116173;1184;68180;-71
2021/08/28 03:32:35;;;;;;;152.20;22.40;;;;;;;11.56;89.97;97337.83;116149;1182;69237;-72
2021/08/28 03:35:05;;;;;;;316.30;24.70;;;;;;;11.51;89.56;97340.69;116251;1183;59546;-71
2021/08/28 03:37:37;;;;;;;420.80;26.80;;;;;;;11.47;89.56;97344.45;115944;1179;59556;-75
2021/08/28 03:40:11;;;;;;;208.80;20.00;;;;;;;11.44;89.50;97348.22;116075;1181;70543;-71
2021/08/28 03:42:41;;;;;;;381.00;27.60;;;;;;;11.41;90.44;97352.11;116123;1184;67253;-71
2021/08/28 03:45:13;;;;;;;645.20;33.00;;;;;;;11.42;90.74;97359.05;116295;1183;69215;-73
2021/08/28 03:47:45;;;;;;;553.40;32.20;;;;;;;11.43;91.08;97365.40;116142;1181;59562;-72
2021/08/28 03:50:15;;;;;;;223.10;28.60;;;;;;;11.45;90.72;97369.86;116062;1180;59619;-74
2021/08/28 03:52:48;;;;;;;79.10;26.70;;;;;;;11.49;90.60;97373.61;116276;1181;70550;-71
2021/08/28 03:55:18;;;;;;;103.40;27.00;;;;;;;11.54;90.64;97373.06;116170;1181;69178;-73
2021/08/28 03:57:48;;;;;;;47.40;24.40;;;;;;;11.55;90.45;97379.36;116242;1179;69026;-71
2021/08/28 04:00:18;;;;;;;39.20;24.10;;;;;;;11.58;90.52;97377.04;116187;1183;60064;-75
2021/08/28 04:02:51;;;;;;;37.00;21.60;;;;;;;11.61;90.61;97375.73;116030;1182;59628;-72
2021/08/28 04:05:23;;;;;;;67.40;30.00;;;;;;;11.66;90.76;97380.89;116269;1183;71342;-71
2021/08/28 04:07:52;;;;;;;41.50;26.20;;;;;;;11.69;90.81;97392.91;116180;1180;68996;-72
2021/08/28 04:10:23;;;;;;;48.20;30.60;;;;;;;11.73;90.68;97391.20;116318;1179;69218;-75
2021/08/28 04:12:52;;;;;;;38.30;23.50;;;;;;;11.78;90.56;97389.13;116175;1184;59552;-75
2021/08/28 04:15:21;;;;;;;35.70;24.80;;;;;;;11.84;90.89;97391.56;116108;1185;59548;-75
2021/08/28 04:18:11;;;;;;;40.40;25.60;;;;;;;11.91;90.85;97392.98;116239;1184;70575;-75
2021/08/28 04:20:44;;;;;;;54.50;27.00;;;;;;;11.96;90.33;97393.36;116211;1184;69140;-75
2021/08/28 04:23:18;;;;;;;189.00;27.30;;;;;;;11.99;90.19;97393.72;116091;1183;68466;-72
2021/08/28 04:26:06;;;;;;;37.80;25.80;;;;;;;12.00;90.59;97397.55;116299;1183;59552;-71
2021/08/28 04:28:36;;;;;;;33.80;25.50;;;;;;;12.06;90.33;97400.79;116265;1184;59549;-72
2021/08/28 04:31:06;;;;;;;36.70;25.50;;;;;;;12.10;89.91;97397.85;116292;1180;71428;-74
2021/08/28 04:33:35;;;;;;;31.20;22.80;;;;;;;12.16;89.80;97397.09;116207;1184;68382;-72
2021/08/28 04:36:05;;;;;;;30.20;21.90;;;;;;;12.18;89.73;97398.80;116197;1184;68427;-73
2021/08/28 04:38:34;;;;;;;25.60;20.50;;;;;;;12.24;89.66;97393.93;116139;1182;59542;-69
2021/08/28 04:41:03;;;;;;;26.30;19.60;;;;;;;12.34;90.04;97395.20;116186;1181;59539;-71
2021/08/28 04:43:33;;;;;;;25.80;18.80;;;;;;;12.43;89.85;97389.84;116141;1184;71360;-72
2021/08/28 04:46:23;;;;;;;23.50;17.80;;;;;;;12.51;89.14;97392.94;116266;1184;69181;-72
2021/08/28 04:48:54;;;;;;;23.40;18.20;;;;;;;12.59;88.91;97395.96;116340;1180;68500;-73
2021/08/28 04:51:42;;;;;;;24.80;18.20;;;;;;;12.67;88.67;97400.10;116319;1183;59530;-73
2021/08/28 04:54:12;;;;;;;25.70;17.80;;;;;;;12.71;88.01;97397.80;116324;1183;59519;-74
2021/08/28 04:56:42;;;;;;;23.50;17.50;;;;;;;12.78;88.11;97397.39;116331;1179;71552;-72
2021/08/28 04:59:12;;;;;;;23.40;16.50;;;;;;;12.83;88.16;97396.23;116349;1183;68003;-72
2021/08/28 05:01:47;;;;;;;20.20;14.90;;;;;;;12.92;88.00;97398.42;116184;1183;68454;-76
2021/08/28 05:04:17;;;;;;;19.80;15.00;;;;;;;13.05;87.96;97399.13;116353;1183;59957;-74
2021/08/28 05:06:47;;;;;;;17.20;13.70;;;;;;;13.17;87.44;97397.15;116323;1181;59552;-75
2021/08/28 05:09:20;;;;;;;19.40;15.60;;;;;;;13.32;87.03;97392.97;116229;1184;71396;-72
2021/08/28 05:11:50;;;;;;;20.60;14.50;;;;;;;13.64;86.74;97392.52;116293;1182;68935;-74
2021/08/28 05:14:24;;;;;;;20.50;13.90;;;;;;;14.04;85.35;97403.36;116335;1180;68382;-72
2021/08/28 05:16:56;;;;;;;16.50;12.00;;;;;;;14.49;84.63;97404.50;116117;1183;60019;-74
2021/08/28 05:19:47;;;;;;;18.20;12.50;;;;;;;14.79;84.75;97408.48;116316;1182;59530;-70
2021/08/28 05:22:43;;;;;;;17.90;11.60;;;;;;;14.94;82.82;97406.43;116179;1179;70729;-76
2021/08/28 05:25:32;;;;;;;17.30;11.40;;;;;;;14.98;81.97;97404.49;116352;1180;69138;-71
2021/08/28 05:28:01;;;;;;;14.70;10.60;;;;;;;14.94;81.25;97400.30;116145;1185;68453;-74
2021/08/28 05:30:33;;;;;;;15.80;11.00;;;;;;;15.03;81.55;97401.73;116262;1182;59530;-73
2021/08/28 05:33:02;;;;;;;16.40;11.30;;;;;;;15.01;80.49;97401.16;116300;1179;59517;-72
2021/08/28 05:35:31;;;;;;;12.80;9.00;;;;;;;14.92;80.19;97407.86;116035;1185;71973;-72
2021/08/28 05:38:11;;;;;;;14.50;9.60;;;;;;;14.92;80.19;97405.83;116147;1180;69156;-72
2021/08/28 05:40:41;;;;;;;15.70;9.30;;;;;;;14.89;79.73;97402.34;116309;1178;69147;-75
2021/08/28 05:43:10;;;;;;;13.20;8.30;;;;;;;14.87;79.33;97407.06;116244;1184;59488;-73
2021/08/28 05:45:57;;;;;;;14.50;8.10;;;;;;;14.85;78.42;97409.05;116336;1183;59529;-72
2021/08/28 05:48:27;;;;;;;12.90;8.70;;;;;;;14.88;78.60;97407.71;116277;1180;70544;-73
2021/08/28 05:50:57;;;;;;;10.80;7.90;;;;;;;14.95;79.10;97414.77;116237;1185;68738;-73
2021/08/28 05:53:30;;;;;;;16.40;8.80;;;;;;;14.94;78.19;97414.70;116327;1179;69250;-73
2021/08/28 05:56:00;;;;;;;12.50;7.70;;;;;;;15.00;78.00;97411.48;116173;1184;59524;-74
2021/08/28 05:58:29;;;;;;;11.70;7.50;;;;;;;15.10;77.99;97410.77;116216;1183;59608;-74
2021/08/28 06:00:59;;;;;;;10.50;7.70;;;;;;;15.24;78.04;97413.52;116068;1179;71476;-69
2021/08/28 06:03:29;;;;;;;12.70;8.30;;;;;;;15.59;76.25;97416.45;116306;1184;69252;-72
2021/08/28 06:06:04;;;;;;;14.70;10.00;;;;;;;16.10;74.67;97417.23;116293;1184;69255;-73
2021/08/28 06:09:08;;;;;;;10.00;6.50;;;;;;;16.60;70.30;97416.81;115957;1186;59504;-74
2021/08/28 06:11:56;;;;;;;10.80;6.50;;;;;;;16.72;68.94;97415.57;116165;1182;59564;-71
2021/08/28 06:14:45;;;;;;;12.40;6.70;;;;;;;16.85;68.39;97413.91;116350;1179;71355;-72
2021/08/28 06:17:26;;;;;;;10.80;6.80;;;;;;;16.85;67.71;97404.80;116295;1183;68657;-73
2021/08/28 06:19:55;;;;;;;11.20;6.60;;;;;;;16.81;68.43;97399.70;116196;1184;69217;-74
2021/08/28 06:22:25;;;;;;;11.70;7.20;;;;;;;17.03;68.72;97397.79;116156;1179;59642;-74
2021/08/28 06:24:53;;;;;;;12.30;6.90;;;;;;;17.50;69.37;97397.62;116086;1181;59537;-73
2021/08/28 06:27:25;;;;;;;12.60;6.10;;;;;;;18.01;68.73;97405.64;116196;1185;70668;-74
2021/08/28 06:29:54;;;;;;;16.80;6.70;;;;;;;18.21;65.42;97408.52;116052;1184;68814;-73
2021/08/28 06:32:23;;;;;;;9.40;5.80;;;;;;;18.28;64.35;97411.80;116191;1183;67525;-73
2021/08/28 06:34:52;;;;;;;9.80;6.50;;;;;;;18.27;64.89;97398.66;116288;1184;59549;-75
2021/08/28 06:37:27;;;;;;;10.90;6.70;;;;;;;18.40;65.14;97397.52;116061;1183;59533;-72
2021/08/28 06:40:15;;;;;;;8.90;5.70;;;;;;;18.42;64.22;97402.69;116236;1183;70547;-74
2021/08/28 06:43:04;;;;;;;9.50;6.10;;;;;;;18.47;64.38;97401.83;116092;1180;69105;-74
2021/08/28 06:45:52;;;;;;;11.30;6.30;;;;;;;18.50;64.54;97391.95;116289;1184;69058;-74
2021/08/28 06:48:44;;;;;;;10.40;6.40;;;;;;;18.53;65.00;97380.27;116014;1185;59518;-74
2021/08/28 06:51:31;;;;;;;9.40;6.20;;;;;;;18.42;64.21;97377.96;116282;1184;59485;-75
2021/08/28 06:54:20;;;;;;;9.10;6.00;;;;;;;18.04;64.33;97380.09;116197;1184;71247;-75
2021/08/28 06:57:24;;;;;;;11.30;6.30;;;;;;;17.97;65.03;97381.90;115913;1187;68725;-75
2021/08/28 07:00:13;;;;;;;9.40;5.80;;;;;;;17.82;64.92;97390.78;116025;1185;68298;-73
2021/08/28 07:03:01;;;;;;;12.00;5.70;;;;;;;17.90;65.15;97392.00;116258;1179;59613;-76
2021/08/28 07:05:30;;;;;;;12.60;6.00;;;;;;;18.15;64.38;97388.89;116179;1182;59561;-74
2021/08/28 07:08:07;;;;;;;9.90;5.70;;;;;;;18.49;63.47;97390.53;116203;1184;71370;-75
2021/08/28 07:10:36;;;;;;;9.80;5.70;;;;;;;18.76;61.99;97387.30;116296;1185;69183;-75
2021/08/28 07:13:05;;;;;;;10.50;5.80;;;;;;;18.74;61.15;97395.80;116104;1184;68446;-74
2021/08/28 07:15:34;;;;;;;10.50;5.20;;;;;;;18.66;61.58;97389.38;116089;1182;59552;-75
2021/08/28 07:18:09;;;;;;;10.60;6.10;;;;;;;18.36;62.34;97390.64;116242;1185;59548;-75
2021/08/28 07:20:42;;;;;;;10.00;5.80;;;;;;;18.82;60.91;97384.33;116205;1184;70521;-73
2021/08/28 07:23:13;;;;;;;9.60;5.20;;;;;;;18.89;59.50;97386.34;116122;1184;69229;-74
2021/08/28 07:25:54;;;;;;;11.30;5.70;;;;;;;18.83;60.82;97387.52;116269;1185;69332;-76
2021/08/28 07:28:24;;;;;;;9.50;5.40;;;;;;;18.81;59.40;97396.73;116015;1185;59559;-74
2021/08/28 07:31:05;;;;;;;9.30;5.10;;;;;;;18.51;60.11;97405.48;116240;1185;59500;-74
2021/08/28 07:33:39;;;;;;;8.40;5.30;;;;;;;18.39;60.60;97400.67;116267;1183;70380;-73
2021/08/28 07:36:08;;;;;;;;;;;;;;;18.44;60.69;97401.54;116223;1185;68344;-75
2021/08/28 07:38:39;;;;;;;9.20;5.20;;;;;;;18.23;60.90;97406.86;115979;1185;68448;-76
2021/08/28 07:41:08;;;;;;;9.30;5.60;;;;;;;18.17;61.25;97400.02;116265;1179;59542;-75
2021/08/28 07:43:39;;;;;;;8.40;5.50;;;;;;;18.04;61.39;97390.34;116309;1182;59626;-74
2021/08/28 07:46:08;;;;;;;8.60;5.40;;;;;;;18.03;61.70;97383.52;116320;1185;71139;-76
2021/08/28 07:48:41;;;;;;;10.70;5.50;;;;;;;18.03;60.34;97377.90;116070;1182;68474;-74
2021/08/28 07:51:11;;;;;;;10.00;5.10;;;;;;;18.02;61.23;97371.67;116148;1185;69219;-80
2021/08/28 07:53:40;;;;;;;9.50;5.10;;;;;;;18.58;59.78;97367.36;116296;1182;59974;-73
2021/08/28 07:56:10;;;;;;;8.60;4.80;;;;;;;19.28;58.82;97372.73;116048;1185;59482;-74
2021/08/28 07:58:40;;;;;;;8.00;4.80;;;;;;;19.93;56.73;97380.16;116038;1185;71448;-72
2021/08/28 08:01:11;;;;;;;9.60;5.20;;;;;;;20.31;54.35;97379.38;116277;1179;69257;-72
2021/08/28 08:03:45;;;;;;;8.10;4.60;;;;;;;20.50;52.81;97366.50;116302;1180;69250;-71
2021/08/28 08:06:33;;;;;;;7.90;4.60;;;;;;;20.69;52.27;97366.98;116025;1185;59579;-71
2021/08/28 08:09:21;;;;;;;6.90;4.00;;;;;;;20.83;52.22;97366.64;116281;1183;59501;-72
2021/08/28 08:12:08;;;;;;;6.50;4.20;;;;;;;20.87;50.34;97381.48;116281;1183;71953;-74
2021/08/28 08:15:13;;;;;;;7.60;4.20;;;;;;;20.79;50.05;97379.23;115850;1187;69016;-72
2021/08/28 08:18:03;;;;;;;7.80;4.40;;;;;;;21.25;49.28;97375.33;116034;1185;68516;-72
2021/08/28 08:21:04;;;;;;;10.20;4.10;;;;;;;21.40;49.20;97385.11;115946;1185;59623;-73
2021/08/28 08:24:08;;;;;;;8.00;4.20;;;;;;;21.94;48.39;97392.03;116291;1183;59546;-73
2021/08/28 08:26:57;;;;;;;6.20;4.00;;;;;;;22.34;47.17;97387.31;116143;1182;71609;-73
2021/08/28 08:29:55;;;;;;;7.20;4.30;;;;;;;22.78;47.01;97393.71;115958;1183;68988;-73
2021/08/28 08:32:36;;;;;;;7.20;4.30;;;;;;;22.98;44.18;97396.37;116102;1182;69394;-76
2021/08/28 08:35:05;;;;;;;6.60;4.10;;;;;;;22.90;44.34;97394.41;116053;1185;59920;-73
2021/08/28 08:37:35;;;;;;;8.00;4.70;;;;;;;22.68;44.97;97387.58;116038;1184;59553;-73
2021/08/28 08:40:05;;;;;;;7.70;4.30;;;;;;;22.52;44.25;97379.11;116101;1184;71743;-74
2021/08/28 08:42:42;;;;;;;7.00;4.00;;;;;;;22.16;44.05;97373.55;116291;1183;68286;-74
2021/08/28 08:45:12;;;;;;;6.20;4.10;;;;;;;21.81;46.84;97375.48;116197;1180;69917;-73
2021/08/28 08:47:42;;;;;;;8.50;4.20;;;;;;;21.97;47.32;97371.98;116255;1179;59534;-72
2021/08/28 08:50:13;;;;;;;7.80;4.00;;;;;;;21.95;46.50;97383.48;116045;1182;59555;-74
2021/08/28 08:52:53;;;;;;;5.80;3.60;;;;;;;21.82;46.92;97388.59;116156;1180;71357;-75
2021/08/28 08:55:35;;;;;;;7.80;4.20;;;;;;;21.31;47.52;97386.95;116209;1185;69835;-72
2021/08/28 08:58:20;;;;;;;7.60;3.70;;;;;;;21.29;48.83;97389.33;116114;1184;68468;-74
2021/08/28 09:01:05;;;;;;;9.90;4.10;;;;;;;21.18;47.95;97396.17;116208;1182;59604;-74
2021/08/28 09:03:37;;;;;;;5.90;3.70;;;;;;;21.17;48.69;97398.22;116259;1184;60014;-73
2021/08/28 09:06:10;;;;;;;9.90;3.90;;;;;;;21.14;48.63;97390.34;116171;1183;70745;-73
2021/08/28 09:08:42;;;;;;;6.50;3.60;;;;;;;21.12;48.63;97385.06;116306;1183;68845;-70
2021/08/28 09:11:31;;;;;;;7.20;4.20;;;;;;;20.86;49.45;97373.48;116182;1182;68236;-75
2021/08/28 09:14:21;;;;;;;6.20;4.10;;;;;;;20.89;50.47;97368.85;116264;1183;59553;-74
2021/08/28 09:16:51;;;;;;;7.50;3.80;;;;;;;20.95;50.20;97352.31;116315;1179;59542;-75
2021/08/28 09:19:39;;;;;;;6.50;3.50;;;;;;;20.86;50.25;97341.73;116327;1183;70423;-73
2021/08/28 09:22:22;;;;;;;6.40;3.50;;;;;;;20.65;50.16;97342.08;116262;1185;68973;-76
2021/08/28 09:24:54;;;;;;;8.00;4.10;;;;;;;20.37;50.55;97346.83;116282;1185;68598;-76
2021/08/28 09:27:37;;;;;;;8.10;4.40;;;;;;;20.13;50.39;97349.42;116273;1183;59544;-75
2021/08/28 09:30:20;;;;;;;6.10;4.00;;;;;;;19.75;51.04;97357.05;116300;1179;59554;-75
2021/08/28 09:32:59;;;;;;;8.30;4.60;;;;;;;19.80;51.12;97365.05;116225;1184;71398;-73
2021/08/28 09:35:32;;;;;;;6.90;4.10;;;;;;;19.83;50.90;97372.11;116303;1183;69297;-75
2021/08/28 09:38:07;;;;;;;6.80;4.10;;;;;;;19.93;50.84;97376.02;116271;1183;68491;-74
2021/08/28 09:40:39;;;;;;;6.50;3.90;;;;;;;19.80;50.51;97380.52;116140;1180;59546;-73
2021/08/28 09:43:17;;;;;;;8.30;3.60;;;;;;;20.02;50.49;97379.89;116306;1184;59540;-74
2021/08/28 09:45:48;;;;;;;7.40;4.00;;;;;;;20.28;50.46;97371.18;116264;1184;70453;-76
2021/08/28 09:48:19;;;;;;;7.00;4.30;;;;;;;20.37;50.37;97371.48;116303;1183;69357;-75
2021/08/28 09:50:52;;;;;;;6.80;4.00;;;;;;;20.38;51.41;97371.63;116281;1185;68282;-73
2021/08/28 09:53:41;;;;;;;7.80;4.00;;;;;;;20.64;51.76;97359.62;116256;1182;59553;-73
2021/08/28 09:56:10;;;;;;;6.40;4.00;;;;;;;20.70;51.42;97353.99;116309;1184;59511;-75
2021/08/28 09:58:40;;;;;;;6.20;3.50;;;;;;;20.63;51.05;97354.50;116320;1183;71451;-74
2021/08/28 10:01:09;;;;;;;9.80;3.20;;;;;;;20.79;49.76;97353.43;116310;1179;69114;-73
2021/08/28 10:03:40;;;;;;;7.90;3.90;;;;;;;20.72;48.52;97356.25;116300;1184;69132;-73
2021/08/28 10:06:09;;;;;;;5.10;3.50;;;;;;;20.62;47.92;97348.37;116263;1184;59549;-74
2021/08/28 10:08:41;;;;;;;6.50;4.30;;;;;;;20.67;48.77;97339.48;116182;1182;59494;-72
2021/08/28 10:11:10;;;;;;;7.90;4.60;;;;;;;20.53;50.09;97333.89;116313;1179;70565;-75
2021/08/28 10:13:40;;;;;;;8.50;4.00;;;;;;;20.32;50.72;97333.64;116300;1184;68463;-75
2021/08/28 10:16:10;;;;;;;6.70;3.90;;;;;;;20.22;51.32;97336.20;116273;1183;68220;-72
2021/08/28 10:18:40;;;;;;;10.30;5.50;;;;;;;20.22;49.23;97332.38;116275;1185;59556;-73
2021/08/28 10:21:11;;;;;;;7.80;4.00;;;;;;;20.07;49.59;97331.36;116281;1179;59546;-72
2021/08/28 10:23:41;;;;;;;7.70;4.30;;;;;;;19.93;49.74;97329.23;116340;1179;71395;-74
2021/08/28 10:26:13;;;;;;;7.80;4.80;;;;;;;19.84;50.35;97335.84;116299;1183;68158;-73
2021/08/28 10:28:43;;;;;;;6.70;4.30;;;;;;;19.88;50.73;97343.20;116314;1182;69235;-75
2021/08/28 10:31:12;;;;;;;7.00;4.10;;;;;;;19.99;51.82;97342.95;116133;1183;59562;-74
2021/08/28 10:33:42;;;;;;;6.80;3.90;;;;;;;20.28;48.99;97348.54;116278;1183;59575;-73
2021/08/28 10:36:11;;;;;;;7.70;4.20;;;;;;;20.55;48.69;97336.03;116304;1180;70427;-73
2021/08/28 10:38:43;;;;;;;5.40;3.60;;;;;;;20.87;49.74;97329.39;116304;1183;68528;-73
2021/08/28 10:41:12;;;;;;;6.70;4.40;;;;;;;21.14;49.66;97319.80;116310;1179;69250;-74
2021/08/28 10:43:42;;;;;;;6.40;3.70;;;;;;;21.34;48.72;97315.13;116238;1183;59542;-74
2021/08/28 10:46:20;;;;;;;7.10;4.60;;;;;;;21.27;48.97;97317.58;116257;1184;59551;-74
2021/08/28 10:49:21;;;;;;;9.50;4.20;;;;;;;21.00;47.99;97313.00;116252;1179;70364;-75
2021/08/28 10:51:55;;;;;;;7.10;4.50;;;;;;;21.11;48.93;97309.98;116270;1183;69278;-74
2021/08/28 10:54:30;;;;;;;6.60;3.50;;;;;;;21.07;49.29;97305.83;116299;1183;69073;-74
2021/08/28 10:57:02;;;;;;;7.00;3.80;;;;;;;20.87;48.53;97300.84;116313;1178;59534;-75
2021/08/28 10:59:34;;;;;;;5.00;3.40;;;;;;;20.54;49.45;97305.34;116294;1183;59519;-73
2021/08/28 11:02:14;;;;;;;7.20;3.50;;;;;;;20.48;49.37;97316.48;116292;1184;71353;-74
2021/08/28 11:04:47;;;;;;;8.40;3.60;;;;;;;20.29;49.86;97316.39;116286;1179;68442;-75
2021/08/28 11:07:27;;;;;;;5.80;3.90;;;;;;;20.25;49.98;97308.41;116257;1183;69277;-73
2021/08/28 11:10:28;;;;;;;6.90;3.80;;;;;;;20.16;50.47;97304.50;116326;1183;59536;-73
2021/08/28 11:13:02;;;;;;;6.10;3.70;;;;;;;20.00;52.52;97300.48;116239;1179;59590;-73
2021/08/28 11:15:31;;;;;;;6.80;3.70;;;;;;;19.94;52.62;97299.61;116260;1179;70887;-75
2021/08/28 11:18:04;;;;;;;6.20;3.70;;;;;;;19.83;53.13;97303.23;116267;1184;68415;-73
2021/08/28 11:20:40;;;;;;;6.20;3.70;;;;;;;19.82;52.54;97295.78;116080;1182;69055;-75
2021/08/28 11:23:20;;;;;;;6.10;4.00;;;;;;;19.66;52.93;97298.08;116022;1179;59550;-73
2021/08/28 11:25:57;;;;;;;5.90;3.50;;;;;;;19.58;53.01;97295.07;116293;1182;59537;-74
2021/08/28 11:28:37;;;;;;;6.70;3.80;;;;;;;19.54;53.31;97298.38;116171;1185;70643;-77
2021/08/28 11:31:07;;;;;;;6.60;3.80;;;;;;;19.44;54.16;97293.72;116265;1180;68962;-75
2021/08/28 11:33:38;;;;;;;7.10;3.50;;;;;;;19.41;54.59;97297.08;116223;1183;69272;-74
2021/08/28 11:36:19;;;;;;;7.40;3.50;;;;;;;19.43;54.27;97310.86;116307;1183;59549;-73
2021/08/28 11:38:51;;;;;;;14.90;10.30;;;;;;;19.39;54.69;97315.90;116123;1181;59478;-75
2021/08/28 11:41:25;;;;;;;8.80;5.10;;;;;;;19.50;55.32;97315.54;116153;1185;71355;-78
2021/08/28 11:43:56;;;;;;;9.50;4.50;;;;;;;19.65;54.04;97309.56;116330;1179;68312;-75
2021/08/28 11:46:26;;;;;;;;;;;;;;;19.71;54.48;97312.95;116123;1184;69386;-74
2021/08/28 11:48:58;;;;;;;11.10;4.00;;;;;;;19.62;53.29;97308.84;116288;1179;59924;-78
2021/08/28 11:51:28;;;;;;;6.70;3.80;;;;;;;19.59;55.04;97316.44;116315;1183;59537;-77
2021/08/28 11:53:58;;;;;;;7.30;3.90;;;;;;;19.63;54.88;97317.92;116250;1183;71399;-75